Time;durP1;ratioP1;P1;durP2;ratioP2;P2;SDS_P1;SDS_P2;PMS_P1;PMS_P2;Temp;Humidity;BMP_temperature;BMP_pressure;BME280_temperature;BME280_humidity;BME280_pressure;Samples;Min_cycle;Max_cycle;Signal;HPM_P1;HPM_P2
2021/10/31 00:01:17;;;;;;;20.73;4.47;;;10.20;99.90;;;;;;5039003;28;20033;-62
2021/10/31 00:03:42;;;;;;;10.30;3.40;;;10.20;99.90;;;;;;5040695;28;20034;-61
2021/10/31 00:06:09;;;;;;;11.73;4.05;;;10.20;99.90;;;;;;5040176;28;20040;-61
2021/10/31 00:08:35;;;;;;;14.13;4.45;;;10.10;99.90;;;;;;5039121;28;20040;-62
2021/10/31 00:11:02;;;;;;;10.15;3.95;;;10.10;99.90;;;;;;5041733;28;20080;-63
2021/10/31 00:13:29;;;;;;;15.18;3.55;;;10.10;99.90;;;;;;5041370;28;20502;-61
2021/10/31 00:15:55;;;;;;;9.70;3.47;;;10.10;99.90;;;;;;5038577;28;20627;-62
2021/10/31 00:18:20;;;;;;;12.43;3.90;;;10.10;99.90;;;;;;5041282;28;20055;-63
2021/10/31 00:20:46;;;;;;;11.18;4.15;;;10.10;99.90;;;;;;5038675;28;20116;-62
2021/10/31 00:23:12;;;;;;;15.45;4.10;;;10.10;99.90;;;;;;5040528;28;20678;-62
2021/10/31 00:25:37;;;;;;;13.60;3.72;;;10.10;99.90;;;;;;5037367;28;20037;-62
2021/10/31 00:28:03;;;;;;;10.25;4.18;;;10.10;99.90;;;;;;5040460;28;20048;-62
2021/10/31 00:30:29;;;;;;;14.10;3.78;;;10.10;99.90;;;;;;5044866;28;20073;-61
2021/10/31 00:32:54;;;;;;;12.45;5.15;;;10.10;99.90;;;;;;5038319;28;20052;-60
2021/10/31 00:35:20;;;;;;;11.65;4.53;;;10.10;99.90;;;;;;5041737;28;20076;-62
2021/10/31 00:37:46;;;;;;;10.32;4.38;;;10.10;99.90;;;;;;5038036;28;20035;-62
2021/10/31 00:40:12;;;;;;;12.80;4.63;;;10.10;99.90;;;;;;5040076;28;20061;-63
2021/10/31 00:42:38;;;;;;;13.38;4.63;;;10.10;99.90;;;;;;5039133;28;20036;-63
2021/10/31 00:45:05;;;;;;;13.00;4.05;;;10.10;99.90;;;;;;5021413;28;20381;-63
2021/10/31 00:47:30;;;;;;;28.83;5.20;;;10.10;99.90;;;;;;5039822;28;20033;-62
2021/10/31 00:49:56;;;;;;;15.88;5.10;;;10.10;99.90;;;;;;5041366;28;20110;-63
2021/10/31 00:52:22;;;;;;;18.30;5.35;;;10.10;99.90;;;;;;5037338;28;20053;-61
2021/10/31 00:54:48;;;;;;;19.83;5.28;;;10.10;99.90;;;;;;5041258;28;20110;-63
2021/10/31 00:57:15;;;;;;;11.98;4.97;;;10.10;99.90;;;;;;5038191;28;20022;-61
2021/10/31 00:59:40;;;;;;;11.25;4.95;;;10.10;99.90;;;;;;5036990;28;20029;-60
2021/10/31 01:02:10;;;;;;;13.52;4.63;;;10.10;99.90;;;;;;5038778;28;20503;-60
2021/10/31 01:04:40;;;;;;;14.80;5.15;;;10.10;99.90;;;;;;5038751;28;20032;-61
2021/10/31 01:07:12;;;;;;;17.92;5.68;;;10.10;99.90;;;;;;5038787;28;20396;-61
2021/10/31 01:10:07;;;;;;;14.40;5.20;;;10.10;99.90;;;;;;5038253;28;20033;-62
2021/10/31 01:12:39;;;;;;;18.10;5.80;;;10.10;99.90;;;;;;5041083;28;20033;-62
2021/10/31 01:15:35;;;;;;;11.82;5.38;;;10.10;99.90;;;;;;5038700;28;20040;-64
2021/10/31 01:18:15;;;;;;;14.43;5.45;;;10.10;99.90;;;;;;5040733;28;20032;-63
2021/10/31 01:20:41;;;;;;;;;;;10.10;99.90;;;;;;5038729;28;20037;-62
2021/10/31 01:23:36;;;;;;;16.95;6.65;;;10.00;99.90;;;;;;5042763;28;19920;-63
2021/10/31 01:26:35;;;;;;;14.13;6.18;;;10.00;99.90;;;;;;5045015;28;20048;-60
2021/10/31 01:29:13;;;;;;;19.88;7.30;;;10.00;99.90;;;;;;5038489;28;20060;-61
2021/10/31 01:32:00;;;;;;;20.88;7.18;;;10.00;99.90;;;;;;5037710;28;20124;-61
2021/10/31 01:35:01;;;;;;;18.75;7.38;;;10.00;99.90;;;;;;5040670;28;20042;-61
2021/10/31 01:37:56;;;;;;;14.02;6.93;;;10.00;99.90;;;;;;5038648;28;20183;-62
2021/10/31 01:40:39;;;;;;;19.35;7.68;;;10.00;99.90;;;;;;5040623;28;20102;-61
2021/10/31 01:43:05;;;;;;;19.17;8.68;;;9.90;99.90;;;;;;5038429;28;20036;-63
2021/10/31 01:45:40;;;;;;;20.13;8.13;;;9.90;99.90;;;;;;5038354;28;20037;-61
2021/10/31 01:48:34;;;;;;;18.02;7.47;;;9.90;99.90;;;;;;5038256;28;20037;-62
2021/10/31 01:51:06;;;;;;;16.42;8.02;;;9.90;99.90;;;;;;5037374;28;20049;-62
2021/10/31 01:53:36;;;;;;;14.27;7.28;;;9.80;99.90;;;;;;5038212;28;20029;-63
2021/10/31 01:56:17;;;;;;;22.08;8.27;;;9.90;99.90;;;;;;5023622;28;20037;-62
2021/10/31 01:59:14;;;;;;;17.38;7.07;;;9.90;99.90;;;;;;5036327;28;20033;-62
2021/10/31 02:01:43;;;;;;;19.17;8.45;;;9.90;99.90;;;;;;5040243;28;20048;-63
2021/10/31 02:04:13;;;;;;;19.45;7.55;;;9.90;99.90;;;;;;5039027;28;20064;-61
2021/10/31 02:06:44;;;;;;;17.07;7.67;;;9.80;99.90;;;;;;5036777;28;20056;-60
2021/10/31 02:09:14;;;;;;;17.98;7.35;;;9.90;99.90;;;;;;5038895;28;20048;-62
2021/10/31 02:11:43;;;;;;;20.55;8.27;;;9.90;99.90;;;;;;5035695;28;20087;-61
2021/10/31 02:14:09;;;;;;;17.55;7.18;;;9.90;99.90;;;;;;5041786;28;20119;-63
2021/10/31 02:16:36;;;;;;;11.48;6.25;;;9.90;99.90;;;;;;5044989;28;20559;-60
2021/10/31 02:19:06;;;;;;;16.58;7.25;;;9.90;99.90;;;;;;5043853;28;20039;-62
2021/10/31 02:21:34;;;;;;;14.37;6.77;;;9.90;99.90;;;;;;5044589;28;20048;-63
2021/10/31 02:24:02;;;;;;;21.17;8.20;;;9.80;99.90;;;;;;5044646;28;20488;-66
2021/10/31 02:26:27;;;;;;;22.60;7.28;;;9.80;99.90;;;;;;5043774;28;20060;-61
2021/10/31 02:28:55;;;;;;;14.48;7.00;;;9.80;99.90;;;;;;5046583;28;20484;-64
2021/10/31 02:31:22;;;;;;;15.68;6.43;;;9.80;99.90;;;;;;5027905;28;20028;-62
2021/10/31 02:33:47;;;;;;;19.15;7.32;;;9.80;99.90;;;;;;5042711;28;20496;-62
2021/10/31 02:36:13;;;;;;;14.70;5.93;;;9.80;99.90;;;;;;5046106;28;20063;-61
2021/10/31 02:38:38;;;;;;;16.35;6.18;;;9.80;99.90;;;;;;5042769;28;20053;-62
2021/10/31 02:41:04;;;;;;;17.75;6.38;;;9.80;99.90;;;;;;5045078;28;20396;-62
2021/10/31 02:43:30;;;;;;;14.48;6.32;;;9.90;99.90;;;;;;5044109;28;20025;-64
2021/10/31 02:45:55;;;;;;;17.40;6.40;;;9.80;99.90;;;;;;5044241;28;20037;-62
2021/10/31 02:48:21;;;;;;;18.27;6.10;;;9.80;99.90;;;;;;5045409;28;20045;-62
2021/10/31 02:50:47;;;;;;;17.60;6.13;;;9.80;99.90;;;;;;5050251;28;20543;-62
2021/10/31 02:53:28;;;;;;;11.13;5.95;;;9.80;99.90;;;;;;5024389;28;20029;-63
2021/10/31 02:56:28;;;;;;;12.88;5.90;;;9.80;99.90;;;;;;5028993;28;20099;-62
2021/10/31 02:58:58;;;;;;;14.07;5.95;;;9.80;99.90;;;;;;5024490;28;20041;-62
2021/10/31 03:01:27;;;;;;;12.65;6.07;;;9.90;99.90;;;;;;5043897;28;20477;-61
2021/10/31 03:03:55;;;;;;;17.52;6.40;;;9.80;99.90;;;;;;5045172;28;20032;-63
2021/10/31 03:06:22;;;;;;;14.00;5.65;;;9.80;99.90;;;;;;5043371;28;20072;-62
2021/10/31 03:08:47;;;;;;;11.63;5.28;;;9.80;99.90;;;;;;5045246;28;20055;-62
2021/10/31 03:11:13;;;;;;;14.75;5.38;;;9.70;99.90;;;;;;5042177;28;20623;-61
2021/10/31 03:13:40;;;;;;;15.00;5.85;;;9.70;99.90;;;;;;5042464;28;20033;-63
2021/10/31 03:16:07;;;;;;;13.18;5.88;;;9.70;99.90;;;;;;5045214;28;20040;-63
2021/10/31 03:18:33;;;;;;;16.83;6.00;;;9.80;99.90;;;;;;5042827;28;20036;-63
2021/10/31 03:20:59;;;;;;;12.18;5.55;;;9.80;99.90;;;;;;5044782;28;20083;-62
2021/10/31 03:23:25;;;;;;;13.80;4.78;;;9.80;99.90;;;;;;5044372;28;20041;-61
2021/10/31 03:25:51;;;;;;;18.45;5.47;;;9.80;99.90;;;;;;5039110;28;20038;-63
2021/10/31 03:28:17;;;;;;;13.63;4.90;;;9.80;99.90;;;;;;5041836;28;20082;-63
2021/10/31 03:30:42;;;;;;;11.43;5.00;;;9.70;99.90;;;;;;5046388;28;20124;-62
2021/10/31 03:33:08;;;;;;;10.55;5.28;;;9.70;99.90;;;;;;5038062;28;20573;-63
2021/10/31 03:35:34;;;;;;;13.38;5.35;;;9.80;99.90;;;;;;5041321;28;20056;-61
2021/10/31 03:38:00;;;;;;;18.52;5.82;;;9.70;99.90;;;;;;5040093;28;20480;-62
2021/10/31 03:40:26;;;;;;;10.60;4.50;;;9.70;99.90;;;;;;5040261;28;20385;-65
2021/10/31 03:42:51;;;;;;;14.02;5.25;;;9.70;99.90;;;;;;5041708;28;20037;-62
2021/10/31 03:45:17;;;;;;;11.25;4.78;;;9.70;99.90;;;;;;5021316;28;20112;-63
2021/10/31 03:47:48;;;;;;;11.25;4.80;;;9.70;99.90;;;;;;5041882;28;20036;-60
2021/10/31 03:50:15;;;;;;;10.32;4.90;;;9.70;99.90;;;;;;5021146;28;20029;-61
2021/10/31 03:52:42;;;;;;;12.23;5.28;;;9.70;99.90;;;;;;5038401;28;20512;-62
2021/10/31 03:55:08;;;;;;;12.48;5.18;;;9.70;99.90;;;;;;5041937;28;20480;-63
2021/10/31 03:57:35;;;;;;;10.57;4.90;;;9.70;99.90;;;;;;5038808;28;20037;-62
2021/10/31 04:00:02;;;;;;;11.90;5.10;;;9.70;99.90;;;;;;5041019;28;20042;-62
2021/10/31 04:02:28;;;;;;;13.90;4.60;;;9.70;99.90;;;;;;5039398;28;20117;-62
2021/10/31 04:04:54;;;;;;;14.38;4.65;;;9.70;99.90;;;;;;5039993;28;20124;-62
2021/10/31 04:07:19;;;;;;;10.75;5.40;;;9.70;99.90;;;;;;5040289;28;20037;-61
2021/10/31 04:09:45;;;;;;;14.20;5.57;;;9.70;99.90;;;;;;5038299;28;20096;-63
2021/10/31 04:12:10;;;;;;;10.40;4.50;;;9.70;99.90;;;;;;5041680;28;20037;-63
2021/10/31 04:14:36;;;;;;;12.55;5.80;;;9.70;99.90;;;;;;5037865;28;20531;-60
2021/10/31 04:17:02;;;;;;;13.80;4.57;;;9.70;99.90;;;;;;5040928;28;20037;-63
2021/10/31 04:19:27;;;;;;;14.43;4.88;;;9.70;99.90;;;;;;5039249;28;20182;-63
2021/10/31 04:21:53;;;;;;;11.02;5.00;;;9.70;99.90;;;;;;5039730;28;20392;-62
2021/10/31 04:24:18;;;;;;;14.52;5.43;;;9.60;99.90;;;;;;5040556;28;20037;-63
2021/10/31 04:26:44;;;;;;;13.35;5.50;;;9.70;99.90;;;;;;5038407;28;20433;-61
2021/10/31 04:29:10;;;;;;;12.75;5.03;;;9.70;99.90;;;;;;5044830;28;20041;-61
2021/10/31 04:31:35;;;;;;;10.07;4.88;;;9.70;99.90;;;;;;5041221;28;20029;-63
2021/10/31 04:34:01;;;;;;;16.92;4.97;;;9.70;99.90;;;;;;5037085;28;20056;-70
2021/10/31 04:36:27;;;;;;;12.60;4.88;;;9.70;99.90;;;;;;5038107;28;20040;-61
2021/10/31 04:38:55;;;;;;;9.23;4.90;;;9.70;99.90;;;;;;5039543;28;20029;-62
2021/10/31 04:41:23;;;;;;;14.38;5.85;;;9.70;99.90;;;;;;5039557;28;20051;-63
2021/10/31 04:43:49;;;;;;;10.85;5.43;;;9.70;99.90;;;;;;5038799;28;20026;-63
2021/10/31 04:46:14;;;;;;;14.57;5.20;;;9.70;99.90;;;;;;5039908;28;20039;-63
2021/10/31 04:48:40;;;;;;;13.27;5.00;;;9.70;99.90;;;;;;5039840;28;20033;-60
2021/10/31 04:51:05;;;;;;;12.20;4.95;;;9.70;99.90;;;;;;5040975;28;20087;-62
2021/10/31 04:53:31;;;;;;;13.45;4.70;;;9.70;99.90;;;;;;5039890;28;20740;-63
2021/10/31 04:55:56;;;;;;;11.30;4.90;;;9.60;99.90;;;;;;5038387;28;20063;-62
2021/10/31 04:58:22;;;;;;;10.32;5.20;;;9.60;99.90;;;;;;5038741;28;20041;-63
2021/10/31 05:00:48;;;;;;;9.95;4.95;;;9.60;99.90;;;;;;5039366;28;20053;-63
2021/10/31 05:03:13;;;;;;;11.45;5.07;;;9.60;99.90;;;;;;5037778;28;20037;-61
2021/10/31 05:05:39;;;;;;;12.35;5.75;;;9.60;99.90;;;;;;5040004;28;20120;-62
2021/10/31 05:08:05;;;;;;;15.40;5.00;;;9.60;99.90;;;;;;5036677;28;20040;-61
2021/10/31 05:10:31;;;;;;;11.85;5.18;;;9.60;99.90;;;;;;5022073;28;20060;-63
2021/10/31 05:12:57;;;;;;;14.15;5.05;;;9.60;99.90;;;;;;5038117;28;20464;-61
2021/10/31 05:15:22;;;;;;;12.10;4.93;;;9.60;99.90;;;;;;5038960;28;20083;-61
2021/10/31 05:17:49;;;;;;;11.65;4.78;;;9.60;99.90;;;;;;5038838;28;20060;-62
2021/10/31 05:20:15;;;;;;;13.82;5.43;;;9.60;99.90;;;;;;5037501;28;20033;-62
2021/10/31 05:22:41;;;;;;;12.60;5.20;;;9.70;99.90;;;;;;5039654;28;20091;-60
2021/10/31 05:25:09;;;;;;;12.80;5.10;;;9.70;99.90;;;;;;5018893;28;20052;-61
2021/10/31 05:27:35;;;;;;;13.70;5.60;;;9.60;99.90;;;;;;5040340;28;20044;-63
2021/10/31 05:30:04;;;;;;;14.10;4.32;;;9.70;99.90;;;;;;5036911;28;20033;-62
2021/10/31 05:32:35;;;;;;;12.38;4.72;;;9.60;99.90;;;;;;5036643;28;20037;-62
2021/10/31 05:35:01;;;;;;;11.05;5.13;;;9.60;99.90;;;;;;5040322;28;20048;-61
2021/10/31 05:37:34;;;;;;;13.88;5.10;;;9.60;99.90;;;;;;5042184;28;20133;-63
2021/10/31 05:40:00;;;;;;;12.95;5.78;;;9.60;99.90;;;;;;5036951;28;20034;-62
2021/10/31 05:42:25;;;;;;;14.07;5.15;;;9.60;99.90;;;;;;5039109;28;20033;-61
2021/10/31 05:44:51;;;;;;;11.68;5.18;;;9.50;99.90;;;;;;5037904;28;20033;-61
2021/10/31 05:47:16;;;;;;;13.32;5.10;;;9.50;99.90;;;;;;5035801;28;20050;-60
2021/10/31 05:49:42;;;;;;;11.45;4.50;;;9.50;99.90;;;;;;5042826;28;20059;-61
2021/10/31 05:52:08;;;;;;;11.45;4.53;;;9.50;99.90;;;;;;5035789;28;20515;-60
2021/10/31 05:54:34;;;;;;;11.88;5.38;;;9.50;99.90;;;;;;5040141;28;20037;-63
2021/10/31 05:57:00;;;;;;;9.98;4.47;;;9.50;99.90;;;;;;5035976;28;20253;-61
2021/10/31 05:59:25;;;;;;;12.13;4.80;;;9.50;99.90;;;;;;5019343;28;20214;-60
2021/10/31 06:01:51;;;;;;;13.27;5.22;;;9.50;99.90;;;;;;5028565;28;20026;-60
2021/10/31 06:04:17;;;;;;;10.98;5.13;;;9.50;99.90;;;;;;5042034;28;20060;-60
2021/10/31 06:06:44;;;;;;;12.13;5.20;;;9.40;99.90;;;;;;5034743;28;20507;-61
2021/10/31 06:09:10;;;;;;;14.73;4.57;;;9.40;99.90;;;;;;5044572;28;20045;-61
2021/10/31 06:11:36;;;;;;;15.40;5.65;;;9.40;99.90;;;;;;5032132;28;20476;-60
2021/10/31 06:14:01;;;;;;;12.30;5.50;;;9.40;99.90;;;;;;5036600;28;20404;-61
2021/10/31 06:16:27;;;;;;;14.80;5.50;;;9.40;99.90;;;;;;5034701;28;20083;-60
2021/10/31 06:18:53;;;;;;;16.40;6.43;;;9.40;99.90;;;;;;5039961;28;20068;-61
2021/10/31 06:21:18;;;;;;;14.52;6.40;;;9.40;99.90;;;;;;5041736;28;20036;-61
2021/10/31 06:23:44;;;;;;;14.05;5.88;;;9.40;99.90;;;;;;5041730;28;20030;-60
2021/10/31 06:26:10;;;;;;;13.90;5.45;;;9.40;99.90;;;;;;5042866;28;20033;-60
2021/10/31 06:28:35;;;;;;;10.80;5.25;;;9.40;99.90;;;;;;5033523;28;20045;-62
2021/10/31 06:31:01;;;;;;;15.25;7.00;;;9.40;99.90;;;;;;5039940;28;20037;-60
2021/10/31 06:33:27;;;;;;;15.25;5.95;;;9.40;99.90;;;;;;5036135;28;20516;-64
2021/10/31 06:35:53;;;;;;;15.77;6.60;;;9.50;99.90;;;;;;5044889;28;20099;-60
2021/10/31 06:38:18;;;;;;;19.02;6.75;;;9.40;99.90;;;;;;5035790;28;20407;-60
2021/10/31 06:40:44;;;;;;;18.40;6.38;;;9.50;99.90;;;;;;5037747;28;20104;-61
2021/10/31 06:43:10;;;;;;;18.85;6.38;;;9.50;99.90;;;;;;5043835;28;20462;-60
2021/10/31 06:45:35;;;;;;;16.95;6.45;;;9.50;99.90;;;;;;5039231;28;20057;-60
2021/10/31 06:48:02;;;;;;;18.05;6.63;;;9.50;99.90;;;;;;5031972;28;20423;-61
2021/10/31 06:50:28;;;;;;;14.38;6.88;;;9.50;99.90;;;;;;5036669;28;20082;-60
2021/10/31 06:52:53;;;;;;;15.48;6.07;;;9.50;99.90;;;;;;5037054;28;20053;-61
2021/10/31 06:55:20;;;;;;;15.68;7.28;;;9.60;99.90;;;;;;5034243;28;20112;-60
2021/10/31 06:57:46;;;;;;;11.77;5.15;;;9.60;99.90;;;;;;5043406;28;20457;-60
2021/10/31 07:00:11;;;;;;;16.08;6.53;;;9.60;99.90;;;;;;5040266;28;20099;-60
2021/10/31 07:02:37;;;;;;;17.48;6.97;;;9.50;99.90;;;;;;5041078;28;20488;-61
2021/10/31 07:05:03;;;;;;;14.20;5.75;;;9.60;99.90;;;;;;5042400;28;20041;-61
2021/10/31 07:07:29;;;;;;;11.18;5.38;;;9.60;99.90;;;;;;5043114;28;20033;-62
2021/10/31 07:09:55;;;;;;;10.93;5.78;;;9.60;99.90;;;;;;5036846;28;20527;-63
2021/10/31 07:12:20;;;;;;;14.07;5.75;;;9.60;99.90;;;;;;5020687;28;20037;-62
2021/10/31 07:14:46;;;;;;;15.40;6.03;;;9.70;99.90;;;;;;5036231;28;20037;-63
2021/10/31 07:17:11;;;;;;;11.80;5.55;;;9.70;99.90;;;;;;5030524;28;20476;-62
2021/10/31 07:19:37;;;;;;;17.52;5.00;;;9.80;99.90;;;;;;5037499;28;20120;-62
2021/10/31 07:22:03;;;;;;;9.55;5.35;;;9.80;99.90;;;;;;5041600;28;20053;-64
2021/10/31 07:24:29;;;;;;;10.90;5.10;;;9.80;99.90;;;;;;5043176;28;20412;-61
2021/10/31 07:26:54;;;;;;;10.65;5.22;;;9.90;99.90;;;;;;5039695;28;20042;-64
2021/10/31 07:29:20;;;;;;;11.48;4.57;;;9.80;99.90;;;;;;5020751;28;20037;-61
2021/10/31 07:31:47;;;;;;;13.50;6.32;;;9.90;99.90;;;;;;5040736;28;20041;-60
2021/10/31 07:34:13;;;;;;;10.45;4.57;;;10.00;99.90;;;;;;5023012;28;20591;-62
2021/10/31 07:36:41;;;;;;;11.52;4.93;;;10.00;99.90;;;;;;5034226;28;20033;-62
2021/10/31 07:39:09;;;;;;;10.15;4.53;;;10.10;99.90;;;;;;5038686;28;20045;-61
2021/10/31 07:41:35;;;;;;;13.00;4.88;;;10.00;99.90;;;;;;5040190;28;20032;-60
2021/10/31 07:44:00;;;;;;;8.63;4.00;;;10.10;99.90;;;;;;5036946;28;20037;-61
2021/10/31 07:46:26;;;;;;;8.45;4.63;;;10.10;99.90;;;;;;5039724;28;20029;-61
2021/10/31 07:48:52;;;;;;;9.27;4.43;;;10.10;99.90;;;;;;5041821;28;20056;-61
2021/10/31 07:51:18;;;;;;;9.70;3.85;;;10.10;99.90;;;;;;5040019;28;20775;-61
2021/10/31 07:53:43;;;;;;;10.98;4.10;;;10.20;99.90;;;;;;5038735;28;20064;-62
2021/10/31 07:56:12;;;;;;;9.02;3.45;;;10.20;99.90;;;;;;5041193;28;20575;-62
2021/10/31 07:58:38;;;;;;;5.50;3.72;;;10.30;99.90;;;;;;5038630;28;20034;-63
2021/10/31 08:01:04;;;;;;;8.20;3.80;;;10.30;99.90;;;;;;5040004;28;20041;-62
2021/10/31 08:03:31;;;;;;;6.03;3.17;;;10.40;99.90;;;;;;5034373;28;20419;-62
2021/10/31 08:05:56;;;;;;;9.05;3.50;;;10.40;99.90;;;;;;5033488;28;20048;-61
2021/10/31 08:08:22;;;;;;;8.05;3.97;;;10.50;99.90;;;;;;5035403;28;20037;-60
2021/10/31 08:10:49;;;;;;;5.75;3.67;;;10.50;99.90;;;;;;5036319;28;20048;-61
2021/10/31 08:13:21;;;;;;;5.20;3.10;;;10.60;99.90;;;;;;5034339;28;20030;-61
2021/10/31 08:15:47;;;;;;;11.10;3.55;;;10.70;99.90;;;;;;5036505;28;20080;-60
2021/10/31 08:18:12;;;;;;;4.93;3.10;;;10.80;99.90;;;;;;5035500;28;20533;-62
2021/10/31 08:20:38;;;;;;;5.25;3.20;;;10.80;99.90;;;;;;5042682;28;20111;-62
2021/10/31 08:23:04;;;;;;;6.20;3.72;;;10.90;99.90;;;;;;5031910;28;20635;-61
2021/10/31 08:25:30;;;;;;;10.75;3.42;;;11.00;99.90;;;;;;5029794;28;20048;-62
2021/10/31 08:27:56;;;;;;;6.65;3.28;;;11.10;99.90;;;;;;5035160;28;20481;-62
2021/10/31 08:30:29;;;;;;;4.88;2.88;;;11.10;99.90;;;;;;5019106;28;20070;-62
2021/10/31 08:32:55;;;;;;;5.65;3.08;;;11.20;99.90;;;;;;5035091;28;20042;-59
2021/10/31 08:35:22;;;;;;;4.63;2.47;;;11.30;99.90;;;;;;5036071;28;20036;-60
2021/10/31 08:37:48;;;;;;;5.80;2.65;;;11.30;99.90;;;;;;5036852;28;20124;-61
2021/10/31 08:40:13;;;;;;;6.70;3.25;;;11.30;99.90;;;;;;5031802;28;20171;-61
2021/10/31 08:42:40;;;;;;;5.35;2.45;;;11.40;99.90;;;;;;5037366;28;20084;-61
2021/10/31 08:45:08;;;;;;;6.53;2.60;;;11.50;99.90;;;;;;5037911;28;20041;-62
2021/10/31 08:47:34;;;;;;;4.72;2.58;;;11.60;99.90;;;;;;5033501;28;20033;-62
2021/10/31 08:50:00;;;;;;;5.30;2.70;;;11.80;99.90;;;;;;5038695;28;20034;-61
2021/10/31 08:52:26;;;;;;;7.80;2.45;;;11.80;99.90;;;;;;5025901;28;20032;-62
2021/10/31 08:54:52;;;;;;;7.40;2.05;;;11.90;99.90;;;;;;5035405;28;20033;-60
2021/10/31 08:57:17;;;;;;;4.82;2.85;;;11.90;99.90;;;;;;5033675;28;20065;-61
2021/10/31 08:59:43;;;;;;;4.13;2.35;;;11.90;99.90;;;;;;5039521;28;20482;-62
2021/10/31 09:02:08;;;;;;;3.92;1.88;;;12.00;99.90;;;;;;5039652;28;20064;-65
2021/10/31 09:04:39;;;;;;;4.00;2.00;;;12.00;99.90;;;;;;5032377;28;20433;-62
2021/10/31 09:07:04;;;;;;;4.82;2.17;;;12.00;99.90;;;;;;5037866;28;20040;-60
2021/10/31 09:09:30;;;;;;;4.78;2.25;;;11.90;99.90;;;;;;5039959;28;20041;-61
2021/10/31 09:11:55;;;;;;;7.53;2.25;;;11.90;99.90;;;;;;5028045;28;20114;-61
2021/10/31 09:14:21;;;;;;;4.80;2.33;;;12.00;99.90;;;;;;5035528;28;20029;-61
2021/10/31 09:16:48;;;;;;;4.88;2.40;;;12.00;99.90;;;;;;5036326;28;20396;-61
2021/10/31 09:19:15;;;;;;;5.75;2.10;;;12.10;99.90;;;;;;5035863;28;20037;-60
2021/10/31 09:21:42;;;;;;;6.32;2.15;;;12.20;99.90;;;;;;5034755;28;20389;-61
2021/10/31 09:24:08;;;;;;;4.22;1.85;;;12.30;99.90;;;;;;5036385;28;20041;-61
2021/10/31 09:26:35;;;;;;;5.05;2.58;;;12.20;99.90;;;;;;5035998;28;20060;-62
2021/10/31 09:29:01;;;;;;;7.32;2.05;;;12.30;99.90;;;;;;5021443;28;20036;-62
2021/10/31 09:31:27;;;;;;;5.53;2.45;;;12.30;99.90;;;;;;5036674;28;20029;-63
2021/10/31 09:33:54;;;;;;;3.65;1.98;;;12.40;99.90;;;;;;5032938;28;20048;-62
2021/10/31 09:36:20;;;;;;;4.38;1.92;;;12.40;99.90;;;;;;5030402;28;20033;-60
2021/10/31 09:38:45;;;;;;;8.95;2.33;;;12.50;99.90;;;;;;5031171;28;20653;-60
2021/10/31 09:41:15;;;;;;;6.10;1.92;;;12.50;99.90;;;;;;5032667;28;21326;-61
2021/10/31 09:43:49;;;;;;;4.82;2.45;;;12.50;99.90;;;;;;5037420;28;20037;-61
2021/10/31 09:46:15;;;;;;;2.83;1.88;;;12.60;99.90;;;;;;5033883;28;20025;-60
2021/10/31 09:48:41;;;;;;;3.80;1.98;;;12.50;99.90;;;;;;5032345;28;20048;-61
2021/10/31 09:51:06;;;;;;;5.50;1.73;;;12.50;99.90;;;;;;5018223;28;20025;-60
2021/10/31 09:53:32;;;;;;;2.83;1.42;;;12.50;99.90;;;;;;5031497;28;20049;-61
2021/10/31 09:55:58;;;;;;;12.77;2.58;;;12.50;99.90;;;;;;5034385;28;20055;-61
2021/10/31 09:58:40;;;;;;;3.35;1.30;;;12.50;99.90;;;;;;5031624;28;20037;-61
2021/10/31 10:01:22;;;;;;;3.35;1.55;;;12.50;99.90;;;;;;5037619;28;20037;-61
2021/10/31 10:03:55;;;;;;;2.47;1.40;;;12.60;99.90;;;;;;5020425;28;20046;-61
2021/10/31 10:06:25;;;;;;;2.83;1.40;;;12.70;99.90;;;;;;5037933;28;20033;-62
2021/10/31 10:09:07;;;;;;;3.17;1.50;;;12.70;99.90;;;;;;5051011;28;20395;-62
2021/10/31 10:11:36;;;;;;;4.13;1.50;;;12.80;99.90;;;;;;5040119;28;20120;-62
2021/10/31 10:14:11;;;;;;;7.32;1.45;;;12.80;99.90;;;;;;5038018;28;20485;-61
2021/10/31 10:16:37;;;;;;;3.65;1.60;;;12.90;99.90;;;;;;5037508;28;20126;-61
2021/10/31 10:19:24;;;;;;;3.92;1.50;;;13.00;99.90;;;;;;5038769;28;20172;-62
2021/10/31 10:22:11;;;;;;;2.90;1.60;;;13.10;99.90;;;;;;5040983;28;20029;-63
2021/10/31 10:24:40;;;;;;;4.07;1.20;;;13.10;99.90;;;;;;5040810;28;20033;-62
2021/10/31 10:27:08;;;;;;;2.63;0.93;;;13.10;99.90;;;;;;5038621;28;20377;-61
2021/10/31 10:29:36;;;;;;;2.65;1.40;;;13.10;99.90;;;;;;5041832;28;20508;-61
2021/10/31 10:32:15;;;;;;;4.13;1.00;;;13.20;99.90;;;;;;5039786;28;20429;-61
2021/10/31 10:34:46;;;;;;;3.35;1.10;;;13.20;99.90;;;;;;5038366;28;20037;-62
2021/10/31 10:37:30;;;;;;;3.38;1.00;;;13.30;99.90;;;;;;5043497;28;20693;-61
2021/10/31 10:40:02;;;;;;;3.33;0.85;;;13.30;99.90;;;;;;5048911;28;20037;-62
2021/10/31 10:42:29;;;;;;;2.55;1.00;;;13.30;99.90;;;;;;5042895;28;20038;-61
2021/10/31 10:45:04;;;;;;;3.92;1.20;;;13.40;99.90;;;;;;5027166;28;20037;-63
2021/10/31 10:47:31;;;;;;;1.58;0.50;;;13.40;99.90;;;;;;5042136;28;20107;-62
2021/10/31 10:49:58;;;;;;;3.30;0.70;;;13.40;99.90;;;;;;5042449;28;20120;-62
2021/10/31 10:52:30;;;;;;;1.85;1.10;;;13.40;99.90;;;;;;5038502;28;20057;-63
2021/10/31 10:55:14;;;;;;;1.30;0.60;;;13.40;99.90;;;;;;5042599;28;20120;-62
2021/10/31 10:58:02;;;;;;;1.48;0.63;;;13.50;99.90;;;;;;5042926;28;20044;-61
2021/10/31 11:00:35;;;;;;;1.08;0.60;;;13.60;99.90;;;;;;5047241;28;20041;-63
2021/10/31 11:03:18;;;;;;;1.67;0.95;;;13.50;99.90;;;;;;5026519;28;20043;-60
2021/10/31 11:05:47;;;;;;;2.30;1.02;;;13.50;99.90;;;;;;5044370;28;20030;-61
2021/10/31 11:08:15;;;;;;;1.73;0.50;;;13.50;99.90;;;;;;5042896;28;20033;-61
2021/10/31 11:10:54;;;;;;;2.42;0.55;;;13.50;99.90;;;;;;5040600;28;20033;-60
2021/10/31 11:13:19;;;;;;;3.20;0.70;;;13.50;99.90;;;;;;5044738;28;20047;-62
2021/10/31 11:15:45;;;;;;;7.25;1.08;;;13.50;99.90;;;;;;5040676;28;20112;-62
2021/10/31 11:18:11;;;;;;;2.47;0.82;;;13.50;99.90;;;;;;5040541;28;20068;-62
2021/10/31 11:20:43;;;;;;;1.92;0.60;;;13.60;99.90;;;;;;5042760;28;20381;-62
2021/10/31 11:23:11;;;;;;;0.93;0.40;;;13.60;99.90;;;;;;5036709;28;20584;-61
2021/10/31 11:25:40;;;;;;;0.95;0.75;;;13.60;99.90;;;;;;5043259;28;20484;-64
2021/10/31 11:28:12;;;;;;;1.23;0.43;;;13.70;99.90;;;;;;5040792;28;20071;-64
2021/10/31 11:30:38;;;;;;;0.40;0.30;;;13.60;99.90;;;;;;5046902;28;20037;-62
2021/10/31 11:33:05;;;;;;;1.25;0.55;;;13.60;99.90;;;;;;5044668;28;20045;-61
2021/10/31 11:35:32;;;;;;;2.90;0.57;;;13.60;99.90;;;;;;5042588;28;20029;-61
2021/10/31 11:38:20;;;;;;;2.78;0.38;;;13.50;99.90;;;;;;5041357;28;20115;-60
2021/10/31 11:40:52;;;;;;;0.98;0.32;;;13.50;99.90;;;;;;5039537;28;20040;-61
2021/10/31 11:43:31;;;;;;;1.65;0.40;;;13.40;99.90;;;;;;5043564;28;20060;-62
2021/10/31 11:45:57;;;;;;;1.08;0.45;;;13.40;99.90;;;;;;5039703;28;20139;-62
2021/10/31 11:48:24;;;;;;;2.03;0.30;;;13.40;99.90;;;;;;5039111;28;20087;-63
2021/10/31 11:50:59;;;;;;;2.75;0.30;;;13.40;99.90;;;;;;5039837;28;20037;-61
2021/10/31 11:53:25;;;;;;;1.58;0.60;;;13.40;99.90;;;;;;5040783;28;20029;-61
2021/10/31 11:55:53;;;;;;;0.90;0.20;;;13.40;99.90;;;;;;5039802;28;20045;-61
2021/10/31 11:58:30;;;;;;;1.40;0.40;;;13.40;99.90;;;;;;5041467;28;20523;-63
2021/10/31 12:00:58;;;;;;;1.13;0.38;;;13.40;99.90;;;;;;5021893;28;20499;-62
2021/10/31 12:03:32;;;;;;;2.17;0.55;;;13.40;99.90;;;;;;5041132;28;20029;-62
2021/10/31 12:06:21;;;;;;;1.80;0.65;;;13.40;99.90;;;;;;5041068;28;20497;-61
2021/10/31 12:08:57;;;;;;;3.13;0.40;;;13.40;99.90;;;;;;5031476;28;20041;-63
2021/10/31 12:11:32;;;;;;;4.85;0.43;;;13.40;99.90;;;;;;5039911;28;20584;-62
2021/10/31 12:14:09;;;;;;;1.42;0.38;;;13.40;99.90;;;;;;5020194;28;20072;-63
2021/10/31 12:16:53;;;;;;;2.03;0.28;;;13.50;99.90;;;;;;5020273;28;20029;-62
2021/10/31 12:19:36;;;;;;;0.38;0.32;;;13.50;99.90;;;;;;5042829;28;20043;-61
2021/10/31 12:22:10;;;;;;;1.05;0.35;;;13.60;99.90;;;;;;5041204;28;20037;-61
2021/10/31 12:24:51;;;;;;;0.60;0.20;;;13.60;99.90;;;;;;5038365;28;20033;-61
2021/10/31 12:27:23;;;;;;;0.68;0.30;;;13.60;99.90;;;;;;5041953;28;20034;-63
2021/10/31 12:30:22;;;;;;;1.73;0.40;;;13.60;99.90;;;;;;5025740;28;20467;-62
2021/10/31 12:32:48;;;;;;;1.23;0.20;;;13.70;99.90;;;;;;5029171;28;20396;-62
2021/10/31 12:35:34;;;;;;;1.08;0.38;;;13.70;99.90;;;;;;5038509;28;20040;-63
2021/10/31 12:38:18;;;;;;;1.40;0.40;;;13.80;99.90;;;;;;5042035;28;20392;-62
2021/10/31 12:41:09;;;;;;;1.83;0.32;;;13.90;99.90;;;;;;5038081;28;20044;-61
2021/10/31 12:43:47;;;;;;;;;;;13.90;99.90;;;;;;5038273;28;20038;-60
2021/10/31 12:46:20;;;;;;;0.65;0.30;;;13.90;99.90;;;;;;5044078;28;20346;-61
2021/10/31 12:48:48;;;;;;;2.17;0.28;;;13.90;99.90;;;;;;5040247;28;20567;-61
2021/10/31 12:51:19;;;;;;;1.45;0.30;;;13.90;99.90;;;;;;5040415;28;20030;-62
2021/10/31 12:53:45;;;;;;;2.08;0.55;;;14.00;99.90;;;;;;5021688;28;20033;-63
2021/10/31 12:56:12;;;;;;;1.27;0.30;;;13.90;99.90;;;;;;5040400;28;20086;-63